EJU16AQ LIMC-GCTS
Flight info
| Callsign | EJU16AQ |
|---|---|
| Flight time | 4h 46m |
| Altitude | 35000 |
| Route | NEDED DCT GEKBA DCT VAMTU DCT KOLON DCT GANGU DCT PADKO DCT DIVKO DCT NILDU DCT NENDA DCT BCN DCT RODRA DCT PEXOT DCT EBROX DCT LOTOS DCT TORDU DCT DIKUT DCT SOPET DCT VLC DCT SERRA DCT ASTRO DCT POBOS DCT XEBAR DCT YES DCT MAMIS DCT BAZAS DCT VIBAS DCT MGA DCT BRIKE DCT VJF L82 RUNAX UL82 IBALU/N0444F370 UN857 TERTO |
| Aircraft | A21N/M-SDE2E3FGHIJ1RWXY/LB1 |
Departure
| Time | 2026-05-05 13:12 |
|---|---|
| Airport | Milan Malpensa International Airport (LIMC) |
Arrival
| Time | 2026-05-05 17:58 |
|---|---|
| Airport | Tenerife Sur Airport (GCTS) |
| Time | Latitude | Longitude | Altitude | Speed | Heading |
|---|---|---|---|---|---|
| 2026-05-05 12:23 | 45.64511 | 8.72224 | 746 ft | 0 kts | 34° |
| 2026-05-05 12:55 | 45.64495 | 8.72209 | 743 ft | 4 kts | 31° |
| 2026-05-05 12:55 | 45.64472 | 8.72190 | 746 ft | 4 kts | 31° |
| 2026-05-05 12:56 | 45.64451 | 8.72167 | 745 ft | 5 kts | 58° |
| 2026-05-05 12:56 | 45.64447 | 8.72150 | 743 ft | 1 kts | 94° |
| 2026-05-05 12:56 | 45.64437 | 8.72178 | 744 ft | 4 kts | 126° |
| 2026-05-05 12:56 | 45.64423 | 8.72210 | 746 ft | 4 kts | 112° |
| 2026-05-05 12:57 | 45.64423 | 8.72244 | 745 ft | 2 kts | 79° |
| 2026-05-05 12:57 | 45.64428 | 8.72275 | 744 ft | 4 kts | 79° |
| 2026-05-05 12:57 | 45.64433 | 8.72313 | 746 ft | 4 kts | 79° |
| 2026-05-05 12:57 | 45.64435 | 8.72330 | 746 ft | 1 kts | 79° |
| 2026-05-05 13:01 | 45.64413 | 8.72422 | 745 ft | 6 kts | 153° |
| 2026-05-05 13:01 | 45.64369 | 8.72439 | 746 ft | 7 kts | 168° |
| 2026-05-05 13:01 | 45.64318 | 8.72454 | 746 ft | 8 kts | 169° |
| 2026-05-05 13:01 | 45.64262 | 8.72470 | 743 ft | 8 kts | 168° |
| 2026-05-05 13:02 | 45.64202 | 8.72486 | 744 ft | 9 kts | 168° |
| 2026-05-05 13:02 | 45.64138 | 8.72505 | 746 ft | 10 kts | 168° |
| 2026-05-05 13:02 | 45.64070 | 8.72525 | 744 ft | 10 kts | 165° |
| 2026-05-05 13:02 | 45.63997 | 8.72551 | 745 ft | 11 kts | 167° |
| 2026-05-05 13:03 | 45.63920 | 8.72574 | 746 ft | 12 kts | 169° |
| 2026-05-05 13:03 | 45.63839 | 8.72597 | 744 ft | 12 kts | 169° |
| 2026-05-05 13:03 | 45.63753 | 8.72620 | 745 ft | 13 kts | 169° |
| 2026-05-05 13:03 | 45.63664 | 8.72645 | 745 ft | 13 kts | 169° |
| 2026-05-05 13:04 | 45.63571 | 8.72671 | 744 ft | 14 kts | 168° |
| 2026-05-05 13:04 | 45.63474 | 8.72697 | 743 ft | 14 kts | 169° |
| 2026-05-05 13:04 | 45.63373 | 8.72725 | 743 ft | 15 kts | 169° |
| 2026-05-05 13:04 | 45.63269 | 8.72752 | 745 ft | 15 kts | 170° |
| 2026-05-05 13:05 | 45.63162 | 8.72782 | 744 ft | 16 kts | 169° |
| 2026-05-05 13:05 | 45.63052 | 8.72813 | 746 ft | 16 kts | 169° |
| 2026-05-05 13:05 | 45.62938 | 8.72844 | 745 ft | 17 kts | 169° |
| 2026-05-05 13:05 | 45.62821 | 8.72875 | 746 ft | 17 kts | 169° |
| 2026-05-05 13:06 | 45.62699 | 8.72910 | 746 ft | 18 kts | 168° |
| 2026-05-05 13:06 | 45.62572 | 8.72945 | 746 ft | 19 kts | 169° |
| 2026-05-05 13:06 | 45.62439 | 8.72982 | 746 ft | 20 kts | 169° |
| 2026-05-05 13:06 | 45.62302 | 8.73020 | 747 ft | 20 kts | 169° |
| 2026-05-05 13:07 | 45.62164 | 8.73057 | 745 ft | 19 kts | 169° |
| 2026-05-05 13:07 | 45.62040 | 8.73091 | 745 ft | 7 kts | 169° |
| 2026-05-05 13:07 | 45.61985 | 8.73106 | 745 ft | 9 kts | 169° |
| 2026-05-05 13:07 | 45.61943 | 8.73118 | 744 ft | 10 kts | 169° |
| 2026-05-05 13:08 | 45.61873 | 8.73137 | 745 ft | 11 kts | 169° |
| 2026-05-05 13:08 | 45.61795 | 8.73162 | 743 ft | 12 kts | 161° |
| 2026-05-05 13:08 | 45.61725 | 8.73236 | 745 ft | 13 kts | 124° |
| 2026-05-05 13:08 | 45.61682 | 8.73329 | 746 ft | 8 kts | 124° |
| 2026-05-05 13:09 | 45.61648 | 8.73403 | 744 ft | 10 kts | 124° |
| 2026-05-05 13:09 | 45.61608 | 8.73487 | 743 ft | 11 kts | 121° |
| 2026-05-05 13:09 | 45.61584 | 8.73593 | 746 ft | 12 kts | 91° |
| 2026-05-05 13:09 | 45.61589 | 8.73664 | 745 ft | 7 kts | 80° |
| 2026-05-05 13:10 | 45.61608 | 8.73729 | 745 ft | 8 kts | 23° |
| 2026-05-05 13:10 | 45.61645 | 8.73729 | 744 ft | 0 kts | 349° |
| 2026-05-05 13:11 | 45.61762 | 8.73698 | 744 ft | 47 kts | 349° |
| 2026-05-05 13:11 | 45.62302 | 8.73549 | 748 ft | 109 kts | 349° |
| 2026-05-05 13:11 | 45.63217 | 8.73297 | 744 ft | 156 kts | 349° |
| 2026-05-05 13:11 | 45.64343 | 8.72997 | 1143 ft | 158 kts | 350° |
| 2026-05-05 13:12 | 45.65394 | 8.72736 | 1746 ft | 155 kts | 353° |
| 2026-05-05 13:12 | 45.66493 | 8.72725 | 2121 ft | 162 kts | 4° |
| 2026-05-05 13:12 | 45.67651 | 8.72783 | 2517 ft | 171 kts | 4° |
| 2026-05-05 13:12 | 45.68869 | 8.72865 | 2922 ft | 182 kts | 5° |
| 2026-05-05 13:13 | 45.70157 | 8.72974 | 3520 ft | 186 kts | 5° |
| 2026-05-05 13:13 | 45.71451 | 8.72720 | 4115 ft | 196 kts | 341° |
| 2026-05-05 13:13 | 45.72651 | 8.71660 | 4577 ft | 211 kts | 316° |
| 2026-05-05 13:13 | 45.73548 | 8.69937 | 5116 ft | 222 kts | 291° |
| 2026-05-05 13:14 | 45.73658 | 8.67741 | 5599 ft | 230 kts | 254° |
| 2026-05-05 13:14 | 45.73076 | 8.65521 | 6001 ft | 248 kts | 244° |
| 2026-05-05 13:14 | 45.72382 | 8.63196 | 6581 ft | 257 kts | 246° |
| 2026-05-05 13:14 | 45.71672 | 8.60839 | 7342 ft | 258 kts | 243° |
| 2026-05-05 13:15 | 45.70791 | 8.58565 | 7968 ft | 268 kts | 237° |
| 2026-05-05 13:15 | 45.69775 | 8.56267 | 8561 ft | 276 kts | 236° |
| 2026-05-05 13:15 | 45.68719 | 8.53959 | 9373 ft | 278 kts | 232° |
| 2026-05-05 13:15 | 45.67365 | 8.51991 | 10168 ft | 281 kts | 216° |
| 2026-05-05 13:16 | 45.65581 | 8.50663 | 10517 ft | 299 kts | 203° |
| 2026-05-05 13:16 | 45.63607 | 8.49559 | 11082 ft | 308 kts | 202° |
| 2026-05-05 13:16 | 45.61605 | 8.48449 | 11827 ft | 310 kts | 203° |
| 2026-05-05 13:16 | 45.59590 | 8.47310 | 12613 ft | 313 kts | 203° |
| 2026-05-05 13:17 | 45.57559 | 8.46144 | 13390 ft | 315 kts | 204° |
| 2026-05-05 13:17 | 45.55516 | 8.44974 | 14119 ft | 318 kts | 202° |
| 2026-05-05 13:17 | 45.53486 | 8.43932 | 14787 ft | 320 kts | 201° |
| 2026-05-05 13:17 | 45.51323 | 8.42860 | 15486 ft | 322 kts | 201° |
| 2026-05-05 13:18 | 45.49199 | 8.41807 | 16159 ft | 324 kts | 201° |
| 2026-05-05 13:18 | 45.47066 | 8.40754 | 16825 ft | 326 kts | 201° |
| 2026-05-05 13:18 | 45.44912 | 8.39690 | 17501 ft | 328 kts | 201° |
| 2026-05-05 13:18 | 45.42753 | 8.38625 | 18184 ft | 329 kts | 201° |
| 2026-05-05 13:19 | 45.40581 | 8.37554 | 18771 ft | 331 kts | 201° |
| 2026-05-05 13:19 | 45.38394 | 8.36474 | 19327 ft | 334 kts | 201° |
| 2026-05-05 13:19 | 45.36193 | 8.35386 | 19869 ft | 337 kts | 201° |
| 2026-05-05 13:19 | 45.33970 | 8.34289 | 20402 ft | 339 kts | 202° |
| 2026-05-05 13:20 | 45.31737 | 8.33186 | 20926 ft | 342 kts | 202° |
| 2026-05-05 13:20 | 45.29485 | 8.32076 | 21448 ft | 344 kts | 202° |
| 2026-05-05 13:20 | 45.27213 | 8.30958 | 21949 ft | 347 kts | 202° |
| 2026-05-05 13:20 | 45.24928 | 8.29837 | 22470 ft | 349 kts | 202° |
| 2026-05-05 13:21 | 45.22622 | 8.28706 | 22976 ft | 352 kts | 202° |
| 2026-05-05 13:21 | 45.20302 | 8.27564 | 23483 ft | 354 kts | 202° |
| 2026-05-05 13:21 | 45.17966 | 8.26416 | 23913 ft | 356 kts | 202° |
| 2026-05-05 13:21 | 45.15649 | 8.25274 | 24333 ft | 358 kts | 203° |
| 2026-05-05 13:22 | 45.13298 | 8.24119 | 24769 ft | 359 kts | 203° |
| 2026-05-05 13:22 | 45.10907 | 8.23033 | 25202 ft | 362 kts | 198° |
| 2026-05-05 13:22 | 45.08380 | 8.22361 | 25612 ft | 366 kts | 194° |
| 2026-05-05 13:22 | 45.05890 | 8.21834 | 26021 ft | 368 kts | 194° |
| 2026-05-05 13:23 | 45.03349 | 8.21312 | 26416 ft | 369 kts | 194° |
| 2026-05-05 13:23 | 45.00809 | 8.20780 | 26797 ft | 371 kts | 194° |
| 2026-05-05 13:23 | 44.98254 | 8.20239 | 27178 ft | 372 kts | 194° |
| 2026-05-05 13:23 | 44.95691 | 8.19693 | 27550 ft | 373 kts | 194° |
| 2026-05-05 13:24 | 44.93115 | 8.19139 | 27906 ft | 375 kts | 194° |
| 2026-05-05 13:24 | 44.90536 | 8.18585 | 28260 ft | 376 kts | 194° |
| 2026-05-05 13:24 | 44.87938 | 8.18029 | 28574 ft | 378 kts | 194° |
| 2026-05-05 13:24 | 44.85330 | 8.17470 | 28890 ft | 380 kts | 194° |
| 2026-05-05 13:25 | 44.82711 | 8.16908 | 29211 ft | 382 kts | 195° |
| 2026-05-05 13:25 | 44.80079 | 8.16345 | 29531 ft | 384 kts | 194° |
| 2026-05-05 13:25 | 44.77433 | 8.15781 | 29852 ft | 385 kts | 195° |
| 2026-05-05 13:25 | 44.74782 | 8.15210 | 30145 ft | 387 kts | 195° |
| 2026-05-05 13:26 | 44.72120 | 8.14624 | 30393 ft | 387 kts | 196° |
| 2026-05-05 13:26 | 44.69519 | 8.13713 | 30588 ft | 384 kts | 204° |
| 2026-05-05 13:26 | 44.67096 | 8.12164 | 30785 ft | 382 kts | 213° |
| 2026-05-05 13:26 | 44.64813 | 8.10231 | 31008 ft | 384 kts | 215° |
| 2026-05-05 13:27 | 44.62544 | 8.08237 | 31253 ft | 385 kts | 214° |
| 2026-05-05 13:27 | 44.60267 | 8.06249 | 31497 ft | 387 kts | 214° |
| 2026-05-05 13:27 | 44.57971 | 8.04265 | 31726 ft | 389 kts | 214° |
| 2026-05-05 13:27 | 44.55660 | 8.02278 | 31960 ft | 390 kts | 214° |
| 2026-05-05 13:28 | 44.53337 | 8.00287 | 32183 ft | 392 kts | 214° |
| 2026-05-05 13:28 | 44.51003 | 7.98290 | 32418 ft | 394 kts | 214° |
| 2026-05-05 13:28 | 44.48663 | 7.96289 | 32660 ft | 395 kts | 214° |
| 2026-05-05 13:28 | 44.46317 | 7.94289 | 32965 ft | 394 kts | 213° |
| 2026-05-05 13:29 | 44.43978 | 7.92296 | 33271 ft | 393 kts | 213° |
| 2026-05-05 13:29 | 44.41647 | 7.90307 | 33530 ft | 392 kts | 213° |
| 2026-05-05 13:29 | 44.39321 | 7.88329 | 33792 ft | 391 kts | 213° |
| 2026-05-05 13:29 | 44.36997 | 7.86351 | 34014 ft | 391 kts | 213° |
| 2026-05-05 13:30 | 44.34673 | 7.84376 | 34176 ft | 391 kts | 213° |
| 2026-05-05 13:30 | 44.32347 | 7.82402 | 34310 ft | 392 kts | 213° |
| 2026-05-05 13:30 | 44.30013 | 7.80424 | 34428 ft | 393 kts | 213° |
| 2026-05-05 13:30 | 44.27740 | 7.78460 | 34493 ft | 395 kts | 216° |
| 2026-05-05 13:31 | 44.25541 | 7.76100 | 34597 ft | 395 kts | 221° |
| 2026-05-05 13:31 | 44.23477 | 7.73573 | 34705 ft | 395 kts | 223° |
| 2026-05-05 13:31 | 44.21425 | 7.71023 | 34839 ft | 395 kts | 223° |
| 2026-05-05 13:31 | 44.19367 | 7.68471 | 34953 ft | 397 kts | 223° |
| 2026-05-05 13:32 | 44.15251 | 7.63383 | 34959 ft | 395 kts | 224° |
| 2026-05-05 13:32 | 44.11549 | 7.57772 | 34990 ft | 392 kts | 229° |
| 2026-05-05 13:33 | 44.08007 | 7.52066 | 34960 ft | 388 kts | 229° |
| 2026-05-05 13:33 | 44.04469 | 7.46400 | 34950 ft | 387 kts | 229° |
| 2026-05-05 13:34 | 44.00933 | 7.40761 | 34943 ft | 387 kts | 229° |
| 2026-05-05 13:34 | 43.97389 | 7.35123 | 34953 ft | 385 kts | 229° |
| 2026-05-05 13:35 | 43.93882 | 7.29549 | 34971 ft | 383 kts | 229° |
| 2026-05-05 13:35 | 43.90365 | 7.23978 | 34972 ft | 384 kts | 229° |
| 2026-05-05 13:36 | 43.86843 | 7.18407 | 34963 ft | 384 kts | 229° |
| 2026-05-05 13:36 | 43.83322 | 7.12849 | 34956 ft | 384 kts | 229° |
| 2026-05-05 13:37 | 43.79792 | 7.07285 | 34953 ft | 385 kts | 229° |
| 2026-05-05 13:37 | 43.76278 | 7.01757 | 34959 ft | 381 kts | 229° |
| 2026-05-05 13:38 | 43.72849 | 6.96169 | 34953 ft | 382 kts | 234° |
| 2026-05-05 13:38 | 43.70446 | 6.89608 | 34953 ft | 383 kts | 246° |
| 2026-05-05 13:39 | 43.68491 | 6.82821 | 34960 ft | 382 kts | 246° |
| 2026-05-05 13:39 | 43.66502 | 6.76019 | 34948 ft | 382 kts | 245° |
| 2026-05-05 13:40 | 43.64497 | 6.69233 | 34939 ft | 382 kts | 245° |
| 2026-05-05 13:40 | 43.61902 | 6.62904 | 34927 ft | 376 kts | 237° |
| 2026-05-05 13:41 | 43.59041 | 6.56834 | 34944 ft | 378 kts | 237° |
| 2026-05-05 13:41 | 43.56202 | 6.50751 | 34915 ft | 377 kts | 237° |
| 2026-05-05 13:42 | 43.53373 | 6.44669 | 34938 ft | 378 kts | 237° |
| 2026-05-05 13:42 | 43.50531 | 6.38576 | 34912 ft | 378 kts | 236° |
| 2026-05-05 13:43 | 43.47694 | 6.32494 | 34908 ft | 378 kts | 236° |
| 2026-05-05 13:43 | 43.44854 | 6.26419 | 34889 ft | 376 kts | 237° |
| 2026-05-05 13:44 | 43.42039 | 6.20409 | 34901 ft | 374 kts | 237° |
| 2026-05-05 13:44 | 43.39220 | 6.14402 | 34907 ft | 373 kts | 236° |
| 2026-05-05 13:45 | 43.36398 | 6.08404 | 34955 ft | 372 kts | 236° |
| 2026-05-05 13:45 | 43.33565 | 6.02402 | 34934 ft | 375 kts | 236° |
| 2026-05-05 13:46 | 43.30729 | 5.96392 | 34920 ft | 376 kts | 236° |
| 2026-05-05 13:46 | 43.27883 | 5.90380 | 34939 ft | 375 kts | 236° |
| 2026-05-05 13:47 | 43.25078 | 5.84468 | 34923 ft | 371 kts | 236° |
| 2026-05-05 13:47 | 43.22259 | 5.78541 | 34927 ft | 371 kts | 236° |
| 2026-05-05 13:48 | 43.19441 | 5.72621 | 34928 ft | 373 kts | 236° |
| 2026-05-05 13:48 | 43.16609 | 5.66686 | 34939 ft | 372 kts | 236° |
| 2026-05-05 13:49 | 43.13775 | 5.60759 | 34931 ft | 372 kts | 236° |
| 2026-05-05 13:49 | 43.10940 | 5.54841 | 34930 ft | 372 kts | 236° |
| 2026-05-05 13:50 | 43.08105 | 5.48937 | 34918 ft | 369 kts | 236° |
| 2026-05-05 13:50 | 43.05282 | 5.43074 | 34930 ft | 369 kts | 236° |
| 2026-05-05 13:51 | 43.02461 | 5.37221 | 34931 ft | 369 kts | 236° |
| 2026-05-05 13:51 | 42.99633 | 5.31365 | 34955 ft | 370 kts | 236° |
| 2026-05-05 13:52 | 42.96791 | 5.25490 | 34935 ft | 371 kts | 236° |
| 2026-05-05 13:52 | 42.93943 | 5.19616 | 34930 ft | 371 kts | 236° |
| 2026-05-05 13:53 | 42.91092 | 5.13747 | 34924 ft | 371 kts | 236° |
| 2026-05-05 13:53 | 42.88250 | 5.07914 | 34920 ft | 369 kts | 236° |
| 2026-05-05 13:54 | 42.85415 | 5.02102 | 34928 ft | 368 kts | 236° |
| 2026-05-05 13:54 | 42.82575 | 4.96290 | 34928 ft | 368 kts | 236° |
| 2026-05-05 13:55 | 42.79726 | 4.90471 | 34940 ft | 370 kts | 235° |
| 2026-05-05 13:55 | 42.77349 | 4.85631 | 34924 ft | 370 kts | 235° |
| 2026-05-05 13:56 | 42.74025 | 4.78862 | 34925 ft | 370 kts | 235° |
| 2026-05-05 13:56 | 42.71626 | 4.73990 | 34924 ft | 370 kts | 235° |
| 2026-05-05 13:57 | 42.68759 | 4.68180 | 34920 ft | 370 kts | 235° |
| 2026-05-05 13:57 | 42.65893 | 4.62383 | 34919 ft | 370 kts | 235° |
| 2026-05-05 13:58 | 42.63022 | 4.56584 | 34956 ft | 370 kts | 235° |
| 2026-05-05 13:58 | 42.60131 | 4.50758 | 34933 ft | 372 kts | 235° |
| 2026-05-05 13:59 | 42.55808 | 4.42069 | 34919 ft | 372 kts | 235° |
| 2026-05-05 14:00 | 42.51468 | 4.33370 | 34918 ft | 367 kts | 235° |
| 2026-05-05 14:00 | 42.48601 | 4.27636 | 34927 ft | 367 kts | 235° |
| 2026-05-05 14:01 | 42.45733 | 4.21911 | 34923 ft | 367 kts | 235° |
| 2026-05-05 14:01 | 42.42851 | 4.16174 | 34931 ft | 370 kts | 235° |
| 2026-05-05 14:02 | 42.39957 | 4.10418 | 34920 ft | 370 kts | 235° |
| 2026-05-05 14:02 | 42.37058 | 4.04665 | 34926 ft | 370 kts | 235° |
| 2026-05-05 14:03 | 42.34157 | 3.98917 | 34934 ft | 370 kts | 235° |
| 2026-05-05 14:03 | 42.31269 | 3.93209 | 34912 ft | 367 kts | 235° |
| 2026-05-05 14:04 | 42.28387 | 3.87527 | 34926 ft | 367 kts | 235° |
| 2026-05-05 14:04 | 42.25503 | 3.81852 | 34924 ft | 367 kts | 234° |
| 2026-05-05 14:05 | 42.22532 | 3.76205 | 34932 ft | 371 kts | 234° |
| 2026-05-05 14:05 | 42.19545 | 3.70548 | 34923 ft | 370 kts | 234° |
| 2026-05-05 14:06 | 42.16554 | 3.64888 | 34905 ft | 370 kts | 234° |
| 2026-05-05 14:06 | 42.13567 | 3.59235 | 34901 ft | 370 kts | 234° |
| 2026-05-05 14:07 | 42.10587 | 3.53612 | 34907 ft | 369 kts | 234° |
| 2026-05-05 14:07 | 42.07609 | 3.48000 | 34903 ft | 369 kts | 234° |
| 2026-05-05 14:08 | 42.04623 | 3.42384 | 34907 ft | 369 kts | 234° |
| 2026-05-05 14:08 | 42.01657 | 3.36814 | 34908 ft | 369 kts | 234° |
| 2026-05-05 14:09 | 41.98666 | 3.31213 | 34905 ft | 369 kts | 234° |
| 2026-05-05 14:09 | 41.95673 | 3.25621 | 34902 ft | 369 kts | 234° |
| 2026-05-05 14:10 | 41.92677 | 3.20021 | 34874 ft | 372 kts | 234° |
| 2026-05-05 14:10 | 41.89679 | 3.14442 | 34897 ft | 367 kts | 234° |
| 2026-05-05 14:11 | 41.86693 | 3.08886 | 34900 ft | 367 kts | 234° |
| 2026-05-05 14:11 | 41.83705 | 3.03335 | 34925 ft | 368 kts | 234° |
| 2026-05-05 14:12 | 41.80697 | 2.97764 | 34902 ft | 368 kts | 234° |
| 2026-05-05 14:12 | 41.77687 | 2.92192 | 34897 ft | 369 kts | 233° |
| 2026-05-05 14:13 | 41.74675 | 2.86636 | 34888 ft | 368 kts | 234° |
| 2026-05-05 14:13 | 41.71671 | 2.81099 | 34895 ft | 367 kts | 234° |
| 2026-05-05 14:14 | 41.68663 | 2.75567 | 34902 ft | 368 kts | 233° |
| 2026-05-05 14:14 | 41.65539 | 2.70148 | 34901 ft | 368 kts | 232° |
| 2026-05-05 14:15 | 41.62392 | 2.64740 | 34918 ft | 369 kts | 232° |
| 2026-05-05 14:15 | 41.59257 | 2.59361 | 34897 ft | 369 kts | 232° |
| 2026-05-05 14:16 | 41.56100 | 2.53949 | 34900 ft | 370 kts | 232° |
| 2026-05-05 14:16 | 41.52938 | 2.48541 | 34872 ft | 369 kts | 232° |
| 2026-05-05 14:17 | 41.49784 | 2.43157 | 34893 ft | 368 kts | 232° |
| 2026-05-05 14:17 | 41.46631 | 2.37783 | 34899 ft | 368 kts | 232° |
| 2026-05-05 14:18 | 41.43478 | 2.32419 | 34903 ft | 367 kts | 232° |
| 2026-05-05 14:18 | 41.40320 | 2.27057 | 34929 ft | 369 kts | 232° |
| 2026-05-05 14:19 | 41.37144 | 2.21671 | 34911 ft | 370 kts | 232° |
| 2026-05-05 14:19 | 41.33969 | 2.16296 | 34912 ft | 370 kts | 232° |
| 2026-05-05 14:20 | 41.30784 | 2.10947 | 34897 ft | 367 kts | 231° |
| 2026-05-05 14:20 | 41.27405 | 2.05870 | 34905 ft | 367 kts | 229° |
| 2026-05-05 14:21 | 41.23991 | 2.00822 | 34904 ft | 367 kts | 229° |
| 2026-05-05 14:21 | 41.20579 | 1.95777 | 34905 ft | 367 kts | 229° |
| 2026-05-05 14:22 | 41.17162 | 1.90737 | 34933 ft | 367 kts | 229° |
| 2026-05-05 14:22 | 41.13731 | 1.85677 | 34907 ft | 369 kts | 229° |
| 2026-05-05 14:23 | 41.10297 | 1.80621 | 34886 ft | 368 kts | 229° |
| 2026-05-05 14:23 | 41.06873 | 1.75588 | 34895 ft | 367 kts | 229° |
| 2026-05-05 14:24 | 41.03448 | 1.70562 | 34894 ft | 367 kts | 229° |
| 2026-05-05 14:24 | 41.00022 | 1.65542 | 34897 ft | 367 kts | 229° |
| 2026-05-05 14:25 | 40.96596 | 1.60532 | 34897 ft | 367 kts | 229° |
| 2026-05-05 14:25 | 40.93163 | 1.55519 | 34899 ft | 367 kts | 229° |
| 2026-05-05 14:26 | 40.89752 | 1.50549 | 34899 ft | 369 kts | 229° |
| 2026-05-05 14:26 | 40.86312 | 1.45553 | 34913 ft | 367 kts | 229° |
| 2026-05-05 14:27 | 40.82872 | 1.40573 | 34912 ft | 367 kts | 229° |
| 2026-05-05 14:27 | 40.79439 | 1.35587 | 34911 ft | 367 kts | 229° |
| 2026-05-05 14:28 | 40.76003 | 1.30608 | 34902 ft | 367 kts | 229° |
| 2026-05-05 14:28 | 40.72561 | 1.25636 | 34901 ft | 367 kts | 229° |
| 2026-05-05 14:29 | 40.69114 | 1.20668 | 34898 ft | 367 kts | 229° |
| 2026-05-05 14:29 | 40.65664 | 1.15706 | 34895 ft | 367 kts | 229° |
| 2026-05-05 14:30 | 40.62196 | 1.10750 | 34910 ft | 369 kts | 229° |
| 2026-05-05 14:30 | 40.58733 | 1.05765 | 34909 ft | 369 kts | 229° |
| 2026-05-05 14:31 | 40.55275 | 1.00773 | 34900 ft | 369 kts | 229° |
| 2026-05-05 14:31 | 40.51810 | 0.95796 | 34896 ft | 369 kts | 229° |
| 2026-05-05 14:32 | 40.48334 | 0.90829 | 34898 ft | 369 kts | 229° |
| 2026-05-05 14:32 | 40.44854 | 0.85867 | 34877 ft | 368 kts | 229° |
| 2026-05-05 14:33 | 40.41388 | 0.80941 | 34894 ft | 368 kts | 229° |
| 2026-05-05 14:33 | 40.37914 | 0.76018 | 34924 ft | 368 kts | 229° |
| 2026-05-05 14:34 | 40.34431 | 0.71076 | 34905 ft | 373 kts | 229° |
| 2026-05-05 14:34 | 40.30906 | 0.66081 | 34901 ft | 373 kts | 229° |
| 2026-05-05 14:35 | 40.27733 | 0.61589 | 34899 ft | 0 kts | 229° |
| 2026-05-05 14:35 | 40.27163 | 0.60788 | 34746 ft | 305 kts | 229° |
| 2026-05-05 14:35 | 40.25676 | 0.58702 | 34431 ft | 316 kts | 229° |
| 2026-05-05 14:36 | 40.24176 | 0.56609 | 34567 ft | 314 kts | 229° |
| 2026-05-05 14:36 | 40.22680 | 0.54530 | 34747 ft | 313 kts | 229° |
| 2026-05-05 14:36 | 40.21188 | 0.52459 | 34892 ft | 313 kts | 229° |
| 2026-05-05 14:36 | 40.19681 | 0.50369 | 34799 ft | 319 kts | 229° |
| 2026-05-05 14:37 | 40.16622 | 0.46056 | 34804 ft | 326 kts | 230° |
| 2026-05-05 14:37 | 40.13537 | 0.41628 | 34888 ft | 333 kts | 230° |
| 2026-05-05 14:38 | 40.10354 | 0.37135 | 34920 ft | 341 kts | 229° |
| 2026-05-05 14:38 | 40.07074 | 0.32536 | 34908 ft | 351 kts | 229° |
| 2026-05-05 14:39 | 40.03701 | 0.27820 | 34911 ft | 360 kts | 229° |
| 2026-05-05 14:39 | 40.00230 | 0.22977 | 34892 ft | 370 kts | 229° |
| 2026-05-05 14:40 | 39.96698 | 0.18053 | 34896 ft | 372 kts | 229° |
| 2026-05-05 14:40 | 39.93168 | 0.13131 | 34902 ft | 372 kts | 229° |
| 2026-05-05 14:41 | 39.89629 | 0.08210 | 34903 ft | 372 kts | 229° |
| 2026-05-05 14:41 | 39.86087 | 0.03299 | 34904 ft | 372 kts | 229° |
| 2026-05-05 14:42 | 39.82549 | -0.01612 | 34917 ft | 374 kts | 229° |
| 2026-05-05 14:42 | 39.78968 | -0.06580 | 34871 ft | 376 kts | 230° |
| 2026-05-05 14:43 | 39.75399 | -0.11506 | 34886 ft | 375 kts | 229° |
| 2026-05-05 14:43 | 39.71827 | -0.16432 | 34885 ft | 374 kts | 229° |
| 2026-05-05 14:44 | 39.68252 | -0.21353 | 34886 ft | 374 kts | 229° |
| 2026-05-05 14:44 | 39.65282 | -0.25432 | 34875 ft | 374 kts | 229° |
| 2026-05-05 14:45 | 39.61704 | -0.30343 | 34881 ft | 374 kts | 229° |
| 2026-05-05 14:45 | 39.58128 | -0.35243 | 34873 ft | 374 kts | 229° |
| 2026-05-05 14:46 | 39.54563 | -0.40120 | 34865 ft | 372 kts | 229° |
| 2026-05-05 14:46 | 39.50996 | -0.44988 | 34875 ft | 372 kts | 229° |
| 2026-05-05 14:47 | 39.47559 | -0.49982 | 34877 ft | 371 kts | 233° |
| 2026-05-05 14:47 | 39.44265 | -0.55072 | 34872 ft | 371 kts | 232° |
| 2026-05-05 14:48 | 39.40940 | -0.60173 | 34874 ft | 371 kts | 232° |
| 2026-05-05 14:48 | 39.37618 | -0.65279 | 34880 ft | 371 kts | 232° |
| 2026-05-05 14:49 | 39.34294 | -0.70391 | 34849 ft | 372 kts | 232° |
| 2026-05-05 14:49 | 39.30957 | -0.75514 | 34868 ft | 372 kts | 232° |
| 2026-05-05 14:50 | 39.27620 | -0.80627 | 34896 ft | 375 kts | 232° |
| 2026-05-05 14:50 | 39.24262 | -0.85764 | 34896 ft | 375 kts | 232° |
| 2026-05-05 14:51 | 39.20901 | -0.90898 | 34897 ft | 374 kts | 232° |
| 2026-05-05 14:51 | 39.17540 | -0.96025 | 34906 ft | 374 kts | 232° |
| 2026-05-05 14:52 | 39.14178 | -1.01144 | 34904 ft | 375 kts | 232° |
| 2026-05-05 14:52 | 39.10809 | -1.06265 | 34869 ft | 374 kts | 232° |
| 2026-05-05 14:53 | 39.07426 | -1.11401 | 34906 ft | 376 kts | 232° |
| 2026-05-05 14:53 | 39.04045 | -1.16520 | 34928 ft | 376 kts | 232° |
| 2026-05-05 14:54 | 39.00655 | -1.21654 | 34910 ft | 377 kts | 232° |
| 2026-05-05 14:54 | 38.97260 | -1.26783 | 34917 ft | 377 kts | 232° |
| 2026-05-05 14:55 | 38.93864 | -1.31900 | 34924 ft | 377 kts | 232° |
| 2026-05-05 14:55 | 38.90463 | -1.37017 | 34912 ft | 376 kts | 232° |
| 2026-05-05 14:56 | 38.87054 | -1.42133 | 34888 ft | 379 kts | 232° |
| 2026-05-05 14:56 | 38.83626 | -1.47273 | 34911 ft | 379 kts | 232° |
| 2026-05-05 14:57 | 38.80198 | -1.52408 | 34922 ft | 379 kts | 232° |
| 2026-05-05 14:57 | 38.76793 | -1.57497 | 34947 ft | 378 kts | 233° |
| 2026-05-05 14:58 | 38.73368 | -1.62604 | 34937 ft | 378 kts | 233° |
| 2026-05-05 14:58 | 38.69947 | -1.67708 | 34930 ft | 378 kts | 233° |
| 2026-05-05 14:59 | 38.66523 | -1.72811 | 34927 ft | 378 kts | 233° |
| 2026-05-05 14:59 | 38.63090 | -1.77916 | 34894 ft | 379 kts | 233° |
| 2026-05-05 15:00 | 38.60205 | -1.82199 | 34915 ft | 379 kts | 232° |
| 2026-05-05 15:00 | 38.56201 | -1.88126 | 34930 ft | 379 kts | 232° |
| 2026-05-05 15:01 | 38.52753 | -1.93222 | 34947 ft | 378 kts | 233° |
| 2026-05-05 15:01 | 38.49319 | -1.98304 | 34938 ft | 377 kts | 233° |
| 2026-05-05 15:02 | 38.45874 | -2.03380 | 34943 ft | 379 kts | 233° |
| 2026-05-05 15:02 | 38.42417 | -2.08465 | 34940 ft | 380 kts | 233° |
| 2026-05-05 15:03 | 38.38972 | -2.13536 | 34936 ft | 378 kts | 233° |
| 2026-05-05 15:03 | 38.35519 | -2.18610 | 34947 ft | 379 kts | 233° |
| 2026-05-05 15:04 | 38.32063 | -2.23675 | 34946 ft | 378 kts | 233° |
| 2026-05-05 15:04 | 38.28613 | -2.28720 | 34946 ft | 378 kts | 233° |
| 2026-05-05 15:05 | 38.23425 | -2.36290 | 34962 ft | 379 kts | 233° |
| 2026-05-05 15:06 | 38.19963 | -2.41336 | 34956 ft | 379 kts | 233° |
| 2026-05-05 15:06 | 38.16497 | -2.46379 | 34921 ft | 379 kts | 233° |
| 2026-05-05 15:07 | 38.13000 | -2.51462 | 34947 ft | 383 kts | 233° |
| 2026-05-05 15:07 | 38.09498 | -2.56536 | 34968 ft | 382 kts | 233° |
| 2026-05-05 15:08 | 38.06021 | -2.61568 | 34969 ft | 382 kts | 233° |
| 2026-05-05 15:08 | 38.02519 | -2.66635 | 34971 ft | 382 kts | 233° |
| 2026-05-05 15:09 | 37.99005 | -2.71707 | 34984 ft | 383 kts | 233° |
| 2026-05-05 15:09 | 37.95484 | -2.76779 | 34966 ft | 383 kts | 233° |
| 2026-05-05 15:10 | 37.91961 | -2.81844 | 34936 ft | 383 kts | 232° |
| 2026-05-05 15:10 | 37.88430 | -2.86918 | 34960 ft | 384 kts | 232° |
| 2026-05-05 15:11 | 37.84895 | -2.91988 | 34949 ft | 384 kts | 232° |
| 2026-05-05 15:11 | 37.81361 | -2.97047 | 34963 ft | 383 kts | 232° |
| 2026-05-05 15:12 | 37.77828 | -3.02102 | 34962 ft | 384 kts | 232° |
| 2026-05-05 15:12 | 37.74288 | -3.07152 | 34958 ft | 384 kts | 233° |
| 2026-05-05 15:13 | 37.70741 | -3.12212 | 34950 ft | 384 kts | 232° |
| 2026-05-05 15:13 | 37.67193 | -3.17262 | 34934 ft | 385 kts | 232° |
| 2026-05-05 15:14 | 37.63618 | -3.22336 | 34949 ft | 387 kts | 232° |
| 2026-05-05 15:14 | 37.60086 | -3.27389 | 34949 ft | 385 kts | 235° |
| 2026-05-05 15:15 | 37.57064 | -3.32933 | 34946 ft | 383 kts | 239° |
| 2026-05-05 15:15 | 37.54133 | -3.38543 | 34955 ft | 383 kts | 239° |
| 2026-05-05 15:16 | 37.51179 | -3.44138 | 34958 ft | 384 kts | 239° |
| 2026-05-05 15:16 | 37.48209 | -3.49741 | 34952 ft | 384 kts | 239° |
| 2026-05-05 15:17 | 37.45241 | -3.55335 | 34955 ft | 385 kts | 239° |
| 2026-05-05 15:17 | 37.42258 | -3.60943 | 34964 ft | 385 kts | 239° |
| 2026-05-05 15:18 | 37.39288 | -3.66516 | 34955 ft | 383 kts | 239° |
| 2026-05-05 15:18 | 37.36311 | -3.72091 | 34964 ft | 386 kts | 238° |
| 2026-05-05 15:19 | 37.33618 | -3.77130 | 34959 ft | 384 kts | 239° |
| 2026-05-05 15:19 | 37.30645 | -3.82685 | 34964 ft | 384 kts | 238° |
| 2026-05-05 15:20 | 37.27654 | -3.88260 | 34963 ft | 385 kts | 238° |
| 2026-05-05 15:20 | 37.24660 | -3.93835 | 34966 ft | 385 kts | 238° |
| 2026-05-05 15:21 | 37.21666 | -3.99399 | 34974 ft | 385 kts | 238° |
| 2026-05-05 15:21 | 37.18665 | -4.04968 | 34960 ft | 385 kts | 238° |
| 2026-05-05 15:22 | 37.15666 | -4.10523 | 34939 ft | 385 kts | 238° |
| 2026-05-05 15:22 | 37.12664 | -4.16070 | 34948 ft | 383 kts | 238° |
| 2026-05-05 15:23 | 37.09663 | -4.21610 | 34951 ft | 385 kts | 238° |
| 2026-05-05 15:23 | 37.06660 | -4.27150 | 34955 ft | 385 kts | 238° |
| 2026-05-05 15:24 | 37.03648 | -4.32688 | 34953 ft | 384 kts | 238° |
| 2026-05-05 15:24 | 37.00637 | -4.38217 | 34943 ft | 384 kts | 238° |
| 2026-05-05 15:25 | 36.97629 | -4.43736 | 34952 ft | 384 kts | 238° |
| 2026-05-05 15:25 | 36.94617 | -4.49253 | 34947 ft | 385 kts | 238° |
| 2026-05-05 15:26 | 36.91598 | -4.54772 | 34938 ft | 384 kts | 238° |
| 2026-05-05 15:26 | 36.88566 | -4.60300 | 34943 ft | 389 kts | 237° |
| 2026-05-05 15:27 | 36.85504 | -4.65882 | 34945 ft | 390 kts | 237° |
| 2026-05-05 15:27 | 36.82439 | -4.71459 | 34944 ft | 390 kts | 237° |
| 2026-05-05 15:28 | 36.79373 | -4.77026 | 34949 ft | 389 kts | 237° |
| 2026-05-05 15:28 | 36.76304 | -4.82591 | 34945 ft | 389 kts | 237° |
| 2026-05-05 15:29 | 36.73228 | -4.88160 | 34948 ft | 390 kts | 237° |
| 2026-05-05 15:29 | 36.70170 | -4.93680 | 34940 ft | 389 kts | 237° |
| 2026-05-05 15:30 | 36.67094 | -4.99231 | 34958 ft | 391 kts | 237° |
| 2026-05-05 15:30 | 36.64000 | -5.04808 | 34938 ft | 392 kts | 237° |
| 2026-05-05 15:31 | 36.60890 | -5.10400 | 34963 ft | 393 kts | 237° |
| 2026-05-05 15:31 | 36.57776 | -5.15992 | 34965 ft | 393 kts | 237° |
| 2026-05-05 15:32 | 36.54658 | -5.21579 | 34978 ft | 393 kts | 237° |
| 2026-05-05 15:32 | 36.51538 | -5.27160 | 34966 ft | 393 kts | 237° |
| 2026-05-05 15:33 | 36.48918 | -5.31841 | 34970 ft | 394 kts | 237° |
| 2026-05-05 15:33 | 36.45790 | -5.37428 | 34986 ft | 394 kts | 237° |
| 2026-05-05 15:34 | 36.42653 | -5.43014 | 34986 ft | 395 kts | 237° |
| 2026-05-05 15:34 | 36.39532 | -5.48558 | 34993 ft | 394 kts | 237° |
| 2026-05-05 15:35 | 36.36394 | -5.54130 | 34983 ft | 394 kts | 237° |
| 2026-05-05 15:35 | 36.33245 | -5.59705 | 34991 ft | 395 kts | 237° |
| 2026-05-05 15:36 | 36.30093 | -5.65287 | 35011 ft | 395 kts | 237° |
| 2026-05-05 15:36 | 36.26942 | -5.70852 | 35000 ft | 395 kts | 237° |
| 2026-05-05 15:37 | 36.23777 | -5.76436 | 35010 ft | 396 kts | 237° |
| 2026-05-05 15:37 | 36.20611 | -5.82014 | 35024 ft | 396 kts | 237° |
| 2026-05-05 15:38 | 36.17434 | -5.87591 | 35025 ft | 396 kts | 236° |
| 2026-05-05 15:38 | 36.14250 | -5.93155 | 35023 ft | 396 kts | 236° |
| 2026-05-05 15:39 | 36.11071 | -5.98730 | 35033 ft | 396 kts | 236° |
| 2026-05-05 15:39 | 36.07889 | -6.04299 | 35028 ft | 397 kts | 236° |
| 2026-05-05 15:40 | 36.04699 | -6.09865 | 35037 ft | 398 kts | 236° |
| 2026-05-05 15:40 | 36.01503 | -6.15458 | 35038 ft | 398 kts | 236° |
| 2026-05-05 15:41 | 35.98303 | -6.21038 | 35038 ft | 398 kts | 236° |
| 2026-05-05 15:41 | 35.95092 | -6.26618 | 35040 ft | 398 kts | 236° |
| 2026-05-05 15:42 | 35.91880 | -6.32185 | 35038 ft | 398 kts | 236° |
| 2026-05-05 15:42 | 35.88667 | -6.37742 | 35039 ft | 398 kts | 236° |
| 2026-05-05 15:43 | 35.85457 | -6.43292 | 35038 ft | 398 kts | 236° |
| 2026-05-05 15:43 | 35.82241 | -6.48839 | 35039 ft | 398 kts | 236° |
| 2026-05-05 15:44 | 35.79024 | -6.54389 | 35042 ft | 398 kts | 236° |
| 2026-05-05 15:44 | 35.75804 | -6.59935 | 35044 ft | 398 kts | 236° |
| 2026-05-05 15:45 | 35.72583 | -6.65471 | 35041 ft | 398 kts | 236° |
| 2026-05-05 15:45 | 35.69360 | -6.71011 | 35047 ft | 398 kts | 236° |
| 2026-05-05 15:46 | 35.66132 | -6.76540 | 35050 ft | 398 kts | 236° |
| 2026-05-05 15:46 | 35.62922 | -6.82026 | 35051 ft | 398 kts | 236° |
| 2026-05-05 15:47 | 35.59686 | -6.87558 | 35054 ft | 400 kts | 235° |
| 2026-05-05 15:47 | 35.56437 | -6.93104 | 35053 ft | 400 kts | 235° |
| 2026-05-05 15:48 | 35.53159 | -6.98650 | 35043 ft | 403 kts | 234° |
| 2026-05-05 15:48 | 35.49859 | -7.04215 | 35059 ft | 403 kts | 235° |
| 2026-05-05 15:49 | 35.46568 | -7.09789 | 35063 ft | 403 kts | 235° |
| 2026-05-05 15:49 | 35.43280 | -7.15361 | 35066 ft | 403 kts | 235° |
| 2026-05-05 15:50 | 35.39995 | -7.20939 | 35068 ft | 403 kts | 235° |
| 2026-05-05 15:50 | 35.36696 | -7.26501 | 35070 ft | 403 kts | 235° |
| 2026-05-05 15:51 | 35.33402 | -7.32065 | 35068 ft | 403 kts | 235° |
| 2026-05-05 15:51 | 35.30111 | -7.37629 | 35068 ft | 404 kts | 235° |
| 2026-05-05 15:52 | 35.26812 | -7.43190 | 35047 ft | 405 kts | 235° |
| 2026-05-05 15:52 | 35.23463 | -7.48781 | 35068 ft | 408 kts | 234° |
| 2026-05-05 15:53 | 35.20121 | -7.54383 | 35079 ft | 408 kts | 235° |
| 2026-05-05 15:53 | 35.16773 | -7.59980 | 35079 ft | 408 kts | 234° |
| 2026-05-05 15:54 | 35.13428 | -7.65584 | 35084 ft | 408 kts | 234° |
| 2026-05-05 15:54 | 35.10075 | -7.71186 | 35076 ft | 408 kts | 234° |
| 2026-05-05 15:55 | 35.06741 | -7.76745 | 35073 ft | 408 kts | 234° |
| 2026-05-05 15:55 | 35.03382 | -7.82330 | 35071 ft | 408 kts | 234° |
| 2026-05-05 15:56 | 35.00020 | -7.87914 | 35075 ft | 408 kts | 234° |
| 2026-05-05 15:56 | 34.96640 | -7.93515 | 35073 ft | 411 kts | 234° |
| 2026-05-05 15:57 | 34.93247 | -7.99135 | 35078 ft | 412 kts | 234° |
| 2026-05-05 15:57 | 34.89850 | -8.04743 | 35081 ft | 411 kts | 234° |
| 2026-05-05 15:58 | 34.86450 | -8.10349 | 35080 ft | 411 kts | 234° |
| 2026-05-05 15:58 | 34.83051 | -8.15948 | 35082 ft | 411 kts | 234° |
| 2026-05-05 15:59 | 34.79650 | -8.21537 | 35083 ft | 411 kts | 234° |
| 2026-05-05 15:59 | 34.76245 | -8.27128 | 35086 ft | 411 kts | 234° |
| 2026-05-05 16:00 | 34.72838 | -8.32711 | 35081 ft | 411 kts | 234° |
| 2026-05-05 16:00 | 34.69424 | -8.38299 | 35084 ft | 414 kts | 234° |
| 2026-05-05 16:01 | 34.66013 | -8.43877 | 35089 ft | 414 kts | 234° |
| 2026-05-05 16:01 | 34.62568 | -8.49491 | 35088 ft | 414 kts | 234° |
| 2026-05-05 16:02 | 34.59122 | -8.55101 | 35088 ft | 414 kts | 234° |
| 2026-05-05 16:02 | 34.55677 | -8.60707 | 35089 ft | 414 kts | 234° |
| 2026-05-05 16:03 | 34.52231 | -8.66308 | 35092 ft | 414 kts | 234° |
| 2026-05-05 16:03 | 34.48774 | -8.71905 | 35091 ft | 414 kts | 234° |
| 2026-05-05 16:04 | 34.45296 | -8.77498 | 35091 ft | 416 kts | 232° |
| 2026-05-05 16:04 | 34.41047 | -8.82279 | 35145 ft | 420 kts | 221° |
| 2026-05-05 16:05 | 34.36427 | -8.86660 | 35288 ft | 422 kts | 220° |
| 2026-05-05 16:05 | 34.31822 | -8.91061 | 35436 ft | 422 kts | 221° |
| 2026-05-05 16:06 | 34.27227 | -8.95466 | 35586 ft | 421 kts | 221° |
| 2026-05-05 16:06 | 34.22640 | -8.99863 | 35738 ft | 421 kts | 221° |
| 2026-05-05 16:07 | 34.18048 | -9.04255 | 35890 ft | 421 kts | 221° |
| 2026-05-05 16:07 | 34.13458 | -9.08634 | 36023 ft | 420 kts | 221° |
| 2026-05-05 16:08 | 34.08890 | -9.12988 | 36182 ft | 418 kts | 221° |
| 2026-05-05 16:08 | 34.04335 | -9.17329 | 36335 ft | 417 kts | 221° |
| 2026-05-05 16:09 | 33.99787 | -9.21653 | 36491 ft | 416 kts | 221° |
| 2026-05-05 16:09 | 33.95254 | -9.25958 | 36647 ft | 415 kts | 221° |
| 2026-05-05 16:10 | 33.90722 | -9.30256 | 36807 ft | 414 kts | 221° |
| 2026-05-05 16:10 | 33.86197 | -9.34539 | 36966 ft | 413 kts | 221° |
| 2026-05-05 16:11 | 33.81708 | -9.38786 | 37090 ft | 409 kts | 222° |
| 2026-05-05 16:12 | 33.72806 | -9.47187 | 37091 ft | 408 kts | 221° |
| 2026-05-05 16:13 | 33.61618 | -9.57710 | 37092 ft | 409 kts | 221° |
| 2026-05-05 16:13 | 33.57143 | -9.61913 | 37081 ft | 407 kts | 222° |
| 2026-05-05 16:14 | 33.48312 | -9.70187 | 37089 ft | 402 kts | 222° |
| 2026-05-05 16:15 | 33.39488 | -9.78428 | 37087 ft | 402 kts | 222° |
| 2026-05-05 16:16 | 33.30682 | -9.86635 | 37084 ft | 403 kts | 221° |
| 2026-05-05 16:17 | 33.24101 | -9.92750 | 37080 ft | 397 kts | 222° |
| 2026-05-05 16:18 | 33.17559 | -9.98820 | 37085 ft | 397 kts | 222° |
| 2026-05-05 16:19 | 33.11019 | -10.04880 | 37085 ft | 397 kts | 222° |
| 2026-05-05 16:19 | 33.04473 | -10.10927 | 37080 ft | 397 kts | 222° |
| 2026-05-05 16:20 | 32.95736 | -10.18972 | 37085 ft | 397 kts | 222° |
| 2026-05-05 16:22 | 32.84802 | -10.29035 | 37080 ft | 398 kts | 222° |
| 2026-05-05 16:23 | 32.76777 | -10.36401 | 37077 ft | 398 kts | 222° |
| 2026-05-05 16:23 | 32.70217 | -10.42410 | 37065 ft | 392 kts | 223° |
| 2026-05-05 16:24 | 32.65910 | -10.46349 | 37073 ft | 391 kts | 223° |
| 2026-05-05 16:25 | 32.59449 | -10.52252 | 37074 ft | 391 kts | 223° |
| 2026-05-05 16:25 | 32.52984 | -10.58144 | 37074 ft | 392 kts | 223° |
| 2026-05-05 16:26 | 32.44315 | -10.66025 | 37070 ft | 393 kts | 223° |
| 2026-05-05 16:27 | 32.40014 | -10.69927 | 37060 ft | 383 kts | 223° |
| 2026-05-05 16:27 | 32.35803 | -10.73743 | 37067 ft | 384 kts | 223° |
| 2026-05-05 16:28 | 32.31563 | -10.77583 | 37068 ft | 384 kts | 223° |
| 2026-05-05 16:28 | 32.27324 | -10.81418 | 37068 ft | 384 kts | 223° |
| 2026-05-05 16:29 | 32.23084 | -10.85248 | 37065 ft | 384 kts | 223° |
| 2026-05-05 16:29 | 32.18837 | -10.89080 | 37065 ft | 384 kts | 223° |
| 2026-05-05 16:30 | 32.14594 | -10.92905 | 37067 ft | 384 kts | 223° |
| 2026-05-05 16:30 | 32.10393 | -10.96684 | 37056 ft | 377 kts | 224° |
| 2026-05-05 16:31 | 32.06215 | -11.00440 | 37056 ft | 378 kts | 224° |
| 2026-05-05 16:31 | 32.02038 | -11.04193 | 37064 ft | 378 kts | 224° |
| 2026-05-05 16:32 | 31.97859 | -11.07941 | 37058 ft | 378 kts | 224° |
| 2026-05-05 16:32 | 31.93680 | -11.11684 | 37074 ft | 378 kts | 224° |
| 2026-05-05 16:33 | 31.89499 | -11.15425 | 37064 ft | 378 kts | 224° |
| 2026-05-05 16:33 | 31.85318 | -11.19162 | 37070 ft | 378 kts | 223° |
| 2026-05-05 16:34 | 31.81176 | -11.22856 | 37056 ft | 371 kts | 224° |
| 2026-05-05 16:34 | 31.77059 | -11.26527 | 37056 ft | 371 kts | 224° |
| 2026-05-05 16:35 | 31.72946 | -11.30193 | 37058 ft | 371 kts | 224° |
| 2026-05-05 16:35 | 31.68825 | -11.33861 | 37055 ft | 373 kts | 224° |
| 2026-05-05 16:36 | 31.64689 | -11.37534 | 37058 ft | 373 kts | 224° |
| 2026-05-05 16:36 | 31.60556 | -11.41202 | 37059 ft | 373 kts | 224° |
| 2026-05-05 16:37 | 31.56419 | -11.44874 | 37059 ft | 372 kts | 224° |
| 2026-05-05 16:37 | 31.52314 | -11.48506 | 37046 ft | 365 kts | 224° |
| 2026-05-05 16:38 | 31.48256 | -11.52098 | 37054 ft | 365 kts | 224° |
| 2026-05-05 16:38 | 31.44195 | -11.55686 | 37056 ft | 365 kts | 224° |
| 2026-05-05 16:39 | 31.40136 | -11.59271 | 37054 ft | 366 kts | 224° |
| 2026-05-05 16:39 | 31.36074 | -11.62847 | 37054 ft | 365 kts | 224° |
| 2026-05-05 16:40 | 31.32039 | -11.66401 | 37054 ft | 365 kts | 224° |
| 2026-05-05 16:40 | 31.27979 | -11.69972 | 37054 ft | 366 kts | 224° |
| 2026-05-05 16:41 | 31.23914 | -11.73544 | 37037 ft | 363 kts | 225° |
| 2026-05-05 16:41 | 31.19917 | -11.77051 | 37049 ft | 359 kts | 225° |
| 2026-05-05 16:42 | 31.15928 | -11.80550 | 37055 ft | 359 kts | 225° |
| 2026-05-05 16:42 | 31.11940 | -11.84046 | 37055 ft | 359 kts | 225° |
| 2026-05-05 16:43 | 31.07944 | -11.87542 | 37052 ft | 359 kts | 225° |
| 2026-05-05 16:43 | 31.03948 | -11.91034 | 37051 ft | 359 kts | 225° |
| 2026-05-05 16:44 | 30.99955 | -11.94520 | 37052 ft | 359 kts | 225° |
| 2026-05-05 16:44 | 30.95961 | -11.98004 | 37011 ft | 359 kts | 225° |
| 2026-05-05 16:45 | 30.91977 | -12.01473 | 37040 ft | 356 kts | 225° |
| 2026-05-05 16:45 | 30.88003 | -12.04929 | 37050 ft | 357 kts | 225° |
| 2026-05-05 16:46 | 30.84026 | -12.08388 | 37052 ft | 357 kts | 225° |
| 2026-05-05 16:46 | 30.80044 | -12.11846 | 37050 ft | 357 kts | 225° |
| 2026-05-05 16:47 | 30.76063 | -12.15295 | 37050 ft | 357 kts | 225° |
| 2026-05-05 16:47 | 30.72082 | -12.18747 | 37042 ft | 357 kts | 225° |
| 2026-05-05 16:48 | 30.68127 | -12.22174 | 37050 ft | 357 kts | 225° |
| 2026-05-05 16:48 | 30.64143 | -12.25620 | 37031 ft | 358 kts | 225° |
| 2026-05-05 16:49 | 30.60149 | -12.29070 | 37042 ft | 358 kts | 225° |
| 2026-05-05 16:49 | 30.56154 | -12.32518 | 37043 ft | 358 kts | 225° |
| 2026-05-05 16:50 | 30.52157 | -12.35964 | 37044 ft | 358 kts | 225° |
| 2026-05-05 16:50 | 30.48160 | -12.39402 | 37041 ft | 358 kts | 225° |
| 2026-05-05 16:51 | 30.44167 | -12.42838 | 37042 ft | 357 kts | 225° |
| 2026-05-05 16:51 | 30.40173 | -12.46271 | 37044 ft | 357 kts | 224° |
| 2026-05-05 16:52 | 30.36177 | -12.49698 | 37044 ft | 358 kts | 224° |
| 2026-05-05 16:52 | 30.32155 | -12.53152 | 37041 ft | 361 kts | 225° |
| 2026-05-05 16:53 | 30.28119 | -12.56610 | 37042 ft | 361 kts | 225° |
| 2026-05-05 16:53 | 30.24084 | -12.60061 | 37041 ft | 361 kts | 225° |
| 2026-05-05 16:54 | 30.20045 | -12.63512 | 37046 ft | 361 kts | 225° |
| 2026-05-05 16:54 | 30.16005 | -12.66961 | 37047 ft | 361 kts | 225° |
| 2026-05-05 16:55 | 30.11963 | -12.70410 | 37044 ft | 361 kts | 225° |
| 2026-05-05 16:55 | 30.08026 | -12.73971 | 37039 ft | 359 kts | 227° |
| 2026-05-05 16:56 | 30.04163 | -12.77616 | 37044 ft | 358 kts | 227° |
| 2026-05-05 16:56 | 30.00299 | -12.81257 | 37041 ft | 358 kts | 227° |
| 2026-05-05 16:57 | 29.96435 | -12.84889 | 37037 ft | 359 kts | 227° |
| 2026-05-05 16:57 | 29.92568 | -12.88521 | 37036 ft | 358 kts | 227° |
| 2026-05-05 16:58 | 29.88698 | -12.92150 | 37039 ft | 359 kts | 226° |
| 2026-05-05 16:58 | 29.84828 | -12.95775 | 37033 ft | 359 kts | 227° |
| 2026-05-05 16:59 | 29.80956 | -12.99402 | 37035 ft | 359 kts | 226° |
| 2026-05-05 16:59 | 29.77084 | -13.03021 | 37035 ft | 359 kts | 226° |
| 2026-05-05 17:00 | 29.73206 | -13.06644 | 37014 ft | 360 kts | 226° |
| 2026-05-05 17:00 | 29.69320 | -13.10270 | 37036 ft | 360 kts | 226° |
| 2026-05-05 17:01 | 29.65428 | -13.13896 | 37042 ft | 360 kts | 226° |
| 2026-05-05 17:01 | 29.61537 | -13.17522 | 37037 ft | 360 kts | 226° |
| 2026-05-05 17:02 | 29.57645 | -13.21143 | 37037 ft | 360 kts | 226° |
| 2026-05-05 17:02 | 29.53757 | -13.24756 | 37037 ft | 359 kts | 226° |
| 2026-05-05 17:03 | 29.49871 | -13.28366 | 37037 ft | 359 kts | 226° |
| 2026-05-05 17:03 | 29.45982 | -13.31972 | 37037 ft | 359 kts | 226° |
| 2026-05-05 17:04 | 29.42090 | -13.35578 | 37025 ft | 361 kts | 226° |
| 2026-05-05 17:04 | 29.38186 | -13.39191 | 37044 ft | 360 kts | 226° |
| 2026-05-05 17:05 | 29.34309 | -13.42775 | 37040 ft | 360 kts | 226° |
| 2026-05-05 17:05 | 29.30407 | -13.46378 | 37036 ft | 361 kts | 226° |
| 2026-05-05 17:06 | 29.26501 | -13.49985 | 37034 ft | 360 kts | 226° |
| 2026-05-05 17:06 | 29.22597 | -13.53583 | 37029 ft | 360 kts | 226° |
| 2026-05-05 17:07 | 29.18691 | -13.57180 | 37031 ft | 360 kts | 226° |
| 2026-05-05 17:07 | 29.14791 | -13.60769 | 37029 ft | 360 kts | 226° |
| 2026-05-05 17:08 | 29.10884 | -13.64359 | 37005 ft | 361 kts | 226° |
| 2026-05-05 17:08 | 29.06968 | -13.67955 | 37023 ft | 362 kts | 226° |
| 2026-05-05 17:09 | 29.03055 | -13.71543 | 37018 ft | 360 kts | 226° |
| 2026-05-05 17:09 | 28.99139 | -13.75131 | 37026 ft | 362 kts | 226° |
| 2026-05-05 17:10 | 28.95885 | -13.78112 | 37035 ft | 360 kts | 226° |
| 2026-05-05 17:10 | 28.91971 | -13.81691 | 37027 ft | 360 kts | 226° |
| 2026-05-05 17:11 | 28.88059 | -13.85265 | 37012 ft | 361 kts | 226° |
| 2026-05-05 17:11 | 28.84146 | -13.88838 | 37018 ft | 360 kts | 226° |
| 2026-05-05 17:12 | 28.80233 | -13.92404 | 36992 ft | 360 kts | 225° |
| 2026-05-05 17:12 | 28.76320 | -13.95968 | 37016 ft | 360 kts | 225° |
| 2026-05-05 17:13 | 28.72410 | -13.99529 | 37020 ft | 360 kts | 225° |
| 2026-05-05 17:13 | 28.68497 | -14.03087 | 37021 ft | 360 kts | 225° |
| 2026-05-05 17:14 | 28.64586 | -14.06639 | 37021 ft | 360 kts | 225° |
| 2026-05-05 17:14 | 28.60670 | -14.10193 | 37017 ft | 360 kts | 225° |
| 2026-05-05 17:15 | 28.56754 | -14.13742 | 37017 ft | 360 kts | 225° |
| 2026-05-05 17:15 | 28.52840 | -14.17287 | 37020 ft | 360 kts | 225° |
| 2026-05-05 17:16 | 28.48923 | -14.20831 | 36983 ft | 361 kts | 225° |
| 2026-05-05 17:16 | 28.44995 | -14.24382 | 37008 ft | 360 kts | 225° |
| 2026-05-05 17:17 | 28.41070 | -14.27927 | 37011 ft | 361 kts | 225° |
| 2026-05-05 17:17 | 28.37141 | -14.31472 | 37009 ft | 360 kts | 225° |
| 2026-05-05 17:18 | 28.33213 | -14.35012 | 37008 ft | 361 kts | 225° |
| 2026-05-05 17:18 | 28.29282 | -14.38551 | 37009 ft | 361 kts | 225° |
| 2026-05-05 17:19 | 28.25352 | -14.42087 | 37009 ft | 361 kts | 225° |
| 2026-05-05 17:19 | 28.21421 | -14.45620 | 37006 ft | 361 kts | 225° |
| 2026-05-05 17:20 | 28.17485 | -14.49153 | 36973 ft | 361 kts | 225° |
| 2026-05-05 17:20 | 28.13541 | -14.52687 | 37001 ft | 362 kts | 225° |
| 2026-05-05 17:21 | 28.09595 | -14.56226 | 37002 ft | 362 kts | 225° |
| 2026-05-05 17:22 | 28.03670 | -14.61539 | 37006 ft | 361 kts | 226° |
| 2026-05-05 17:22 | 28.00396 | -14.65717 | 37011 ft | 353 kts | 241° |
| 2026-05-05 17:23 | 27.98620 | -14.70812 | 37013 ft | 352 kts | 254° |
| 2026-05-05 17:23 | 27.97492 | -14.76207 | 37000 ft | 352 kts | 255° |
| 2026-05-05 17:24 | 27.96343 | -14.81590 | 36999 ft | 352 kts | 255° |
| 2026-05-05 17:24 | 27.95177 | -14.86973 | 37001 ft | 352 kts | 255° |
| 2026-05-05 17:25 | 27.94006 | -14.92354 | 37007 ft | 352 kts | 255° |
| 2026-05-05 17:25 | 27.92835 | -14.97734 | 37013 ft | 352 kts | 254° |
| 2026-05-05 17:26 | 27.91659 | -15.03112 | 37018 ft | 352 kts | 254° |
| 2026-05-05 17:26 | 27.90483 | -15.08491 | 37013 ft | 352 kts | 254° |
| 2026-05-05 17:27 | 27.89299 | -15.13865 | 37020 ft | 352 kts | 254° |
| 2026-05-05 17:27 | 27.88105 | -15.19236 | 37019 ft | 352 kts | 254° |
| 2026-05-05 17:28 | 27.86917 | -15.24611 | 37027 ft | 352 kts | 254° |
| 2026-05-05 17:28 | 27.85734 | -15.29982 | 37029 ft | 352 kts | 254° |
| 2026-05-05 17:29 | 27.84565 | -15.35321 | 36767 ft | 344 kts | 254° |
| 2026-05-05 17:29 | 27.83994 | -15.37941 | 36081 ft | 344 kts | 254° |
| 2026-05-05 17:29 | 27.83418 | -15.40576 | 35256 ft | 348 kts | 254° |
| 2026-05-05 17:29 | 27.82999 | -15.43292 | 34431 ft | 355 kts | 261° |
| 2026-05-05 17:30 | 27.83034 | -15.46101 | 33688 ft | 361 kts | 268° |
| 2026-05-05 17:30 | 27.83276 | -15.48936 | 32840 ft | 364 kts | 269° |
| 2026-05-05 17:30 | 27.83550 | -15.51797 | 31935 ft | 368 kts | 270° |
| 2026-05-05 17:30 | 27.83825 | -15.54690 | 31020 ft | 372 kts | 270° |
| 2026-05-05 17:31 | 27.84087 | -15.57615 | 30151 ft | 376 kts | 270° |
| 2026-05-05 17:31 | 27.84344 | -15.60533 | 29118 ft | 380 kts | 270° |
| 2026-05-05 17:31 | 27.84607 | -15.63512 | 28156 ft | 382 kts | 270° |
| 2026-05-05 17:31 | 27.84864 | -15.66494 | 27366 ft | 380 kts | 269° |
| 2026-05-05 17:32 | 27.85120 | -15.69462 | 26650 ft | 378 kts | 269° |
| 2026-05-05 17:32 | 27.85379 | -15.72438 | 25984 ft | 374 kts | 270° |
| 2026-05-05 17:32 | 27.85628 | -15.75311 | 25331 ft | 371 kts | 270° |
| 2026-05-05 17:32 | 27.85874 | -15.78195 | 24707 ft | 367 kts | 270° |
| 2026-05-05 17:33 | 27.86117 | -15.81050 | 24089 ft | 364 kts | 270° |
| 2026-05-05 17:33 | 27.86359 | -15.83884 | 23445 ft | 361 kts | 270° |
| 2026-05-05 17:33 | 27.86599 | -15.86691 | 22709 ft | 358 kts | 270° |
| 2026-05-05 17:33 | 27.86836 | -15.89480 | 21991 ft | 355 kts | 270° |
| 2026-05-05 17:34 | 27.87070 | -15.92245 | 21296 ft | 352 kts | 270° |
| 2026-05-05 17:34 | 27.87301 | -15.94992 | 20616 ft | 350 kts | 270° |
| 2026-05-05 17:34 | 27.87529 | -15.97722 | 19957 ft | 348 kts | 270° |
| 2026-05-05 17:34 | 27.87758 | -16.00435 | 19324 ft | 346 kts | 270° |
| 2026-05-05 17:35 | 27.87983 | -16.03133 | 18693 ft | 344 kts | 270° |
| 2026-05-05 17:35 | 27.88207 | -16.05816 | 18036 ft | 342 kts | 270° |
| 2026-05-05 17:35 | 27.88426 | -16.08485 | 17355 ft | 340 kts | 271° |
| 2026-05-05 17:35 | 27.88646 | -16.11137 | 16705 ft | 337 kts | 271° |
| 2026-05-05 17:36 | 27.88866 | -16.13766 | 16078 ft | 335 kts | 271° |
| 2026-05-05 17:36 | 27.89081 | -16.16374 | 15467 ft | 332 kts | 271° |
| 2026-05-05 17:36 | 27.89284 | -16.18966 | 14868 ft | 330 kts | 271° |
| 2026-05-05 17:36 | 27.89498 | -16.21538 | 14289 ft | 328 kts | 272° |
| 2026-05-05 17:37 | 27.89708 | -16.24094 | 13742 ft | 325 kts | 272° |
| 2026-05-05 17:37 | 27.89807 | -16.25760 | 13524 ft | 316 kts | 267° |
| 2026-05-05 17:37 | 27.89191 | -16.28870 | 13249 ft | 296 kts | 248° |
| 2026-05-05 17:37 | 27.88398 | -16.30958 | 13101 ft | 282 kts | 246° |
| 2026-05-05 17:38 | 27.87629 | -16.32948 | 12964 ft | 270 kts | 247° |
| 2026-05-05 17:38 | 27.86892 | -16.34865 | 12684 ft | 263 kts | 247° |
| 2026-05-05 17:38 | 27.86166 | -16.36758 | 12264 ft | 262 kts | 247° |
| 2026-05-05 17:38 | 27.85441 | -16.38653 | 11804 ft | 263 kts | 247° |
| 2026-05-05 17:39 | 27.84718 | -16.40559 | 11350 ft | 264 kts | 247° |
| 2026-05-05 17:39 | 27.84006 | -16.42480 | 10896 ft | 266 kts | 248° |
| 2026-05-05 17:39 | 27.83290 | -16.44410 | 10458 ft | 267 kts | 247° |
| 2026-05-05 17:39 | 27.82568 | -16.46349 | 10016 ft | 270 kts | 247° |
| 2026-05-05 17:40 | 27.81844 | -16.48286 | 9613 ft | 272 kts | 247° |
| 2026-05-05 17:40 | 27.81107 | -16.50250 | 9210 ft | 272 kts | 247° |
| 2026-05-05 17:40 | 27.80368 | -16.52218 | 8829 ft | 272 kts | 247° |
| 2026-05-05 17:40 | 27.79628 | -16.54186 | 8453 ft | 272 kts | 247° |
| 2026-05-05 17:41 | 27.78890 | -16.56150 | 8101 ft | 271 kts | 247° |
| 2026-05-05 17:41 | 27.78154 | -16.58104 | 7776 ft | 270 kts | 247° |
| 2026-05-05 17:41 | 27.77418 | -16.60052 | 7455 ft | 271 kts | 247° |
| 2026-05-05 17:41 | 27.76683 | -16.62003 | 7141 ft | 268 kts | 247° |
| 2026-05-05 17:42 | 27.75988 | -16.63940 | 6820 ft | 265 kts | 255° |
| 2026-05-05 17:42 | 27.75878 | -16.65981 | 6502 ft | 261 kts | 280° |
| 2026-05-05 17:42 | 27.76551 | -16.67853 | 6182 ft | 258 kts | 302° |
| 2026-05-05 17:42 | 27.77569 | -16.69510 | 5872 ft | 255 kts | 306° |
| 2026-05-05 17:43 | 27.78600 | -16.71101 | 5678 ft | 246 kts | 306° |
| 2026-05-05 17:43 | 27.79590 | -16.72631 | 5484 ft | 238 kts | 306° |
| 2026-05-05 17:43 | 27.80689 | -16.73990 | 5147 ft | 234 kts | 326° |
| 2026-05-05 17:43 | 27.82156 | -16.74768 | 4790 ft | 233 kts | 340° |
| 2026-05-05 17:44 | 27.83679 | -16.75373 | 4386 ft | 231 kts | 341° |
| 2026-05-05 17:44 | 27.85194 | -16.75961 | 3998 ft | 229 kts | 341° |
| 2026-05-05 17:44 | 27.86697 | -16.76542 | 3663 ft | 227 kts | 341° |
| 2026-05-05 17:44 | 27.88189 | -16.77119 | 3351 ft | 227 kts | 341° |
| 2026-05-05 17:45 | 27.89674 | -16.77695 | 3087 ft | 225 kts | 341° |
| 2026-05-05 17:45 | 27.91150 | -16.78270 | 2852 ft | 223 kts | 341° |
| 2026-05-05 17:45 | 27.92620 | -16.78845 | 2675 ft | 224 kts | 341° |
| 2026-05-05 17:45 | 27.94090 | -16.79418 | 2518 ft | 224 kts | 341° |
| 2026-05-05 17:46 | 27.95561 | -16.79988 | 2397 ft | 223 kts | 341° |
| 2026-05-05 17:46 | 27.97087 | -16.80172 | 2264 ft | 224 kts | 12° |
| 2026-05-05 17:46 | 27.98419 | -16.79299 | 2133 ft | 227 kts | 49° |
| 2026-05-05 17:46 | 27.99012 | -16.77693 | 2056 ft | 230 kts | 86° |
| 2026-05-05 17:47 | 27.98885 | -16.75879 | 2074 ft | 232 kts | 96° |
| 2026-05-05 17:47 | 27.98816 | -16.74063 | 2084 ft | 228 kts | 84° |
| 2026-05-05 17:47 | 27.99103 | -16.72383 | 2076 ft | 208 kts | 70° |
| 2026-05-05 17:47 | 27.99601 | -16.70873 | 2072 ft | 204 kts | 65° |
| 2026-05-05 17:48 | 28.00158 | -16.69401 | 2081 ft | 200 kts | 64° |
| 2026-05-05 17:48 | 28.00692 | -16.67961 | 1948 ft | 194 kts | 64° |
| 2026-05-05 17:48 | 28.01186 | -16.66598 | 1747 ft | 181 kts | 65° |
| 2026-05-05 17:48 | 28.01629 | -16.65333 | 1509 ft | 166 kts | 66° |
| 2026-05-05 17:49 | 28.02037 | -16.64162 | 1244 ft | 151 kts | 65° |
| 2026-05-05 17:49 | 28.02404 | -16.63109 | 1046 ft | 139 kts | 67° |
| 2026-05-05 17:49 | 28.02762 | -16.62083 | 855 ft | 141 kts | 69° |
| 2026-05-05 17:49 | 28.03125 | -16.61063 | 666 ft | 138 kts | 71° |
| 2026-05-05 17:50 | 28.03471 | -16.60049 | 459 ft | 137 kts | 71° |
| 2026-05-05 17:50 | 28.03831 | -16.59026 | 296 ft | 141 kts | 71° |
| 2026-05-05 17:50 | 28.04189 | -16.58012 | 217 ft | 132 kts | 73° |
| 2026-05-05 17:50 | 28.04542 | -16.56978 | 481 ft | 156 kts | 72° |
| 2026-05-05 17:51 | 28.04888 | -16.55786 | 1222 ft | 166 kts | 82° |
| 2026-05-05 17:51 | 28.04521 | -16.54453 | 1776 ft | 198 kts | 126° |
| 2026-05-05 17:51 | 28.03279 | -16.53634 | 2415 ft | 223 kts | 169° |
| 2026-05-05 17:51 | 28.01670 | -16.53500 | 2859 ft | 238 kts | 187° |
| 2026-05-05 17:52 | 28.00130 | -16.54097 | 2983 ft | 235 kts | 216° |
| 2026-05-05 17:52 | 27.99036 | -16.55430 | 3005 ft | 233 kts | 242° |
| 2026-05-05 17:52 | 27.98321 | -16.57058 | 3008 ft | 229 kts | 255° |
| 2026-05-05 17:52 | 27.97936 | -16.58799 | 3005 ft | 228 kts | 261° |
| 2026-05-05 17:53 | 27.97608 | -16.60556 | 3001 ft | 228 kts | 261° |
| 2026-05-05 17:53 | 27.97292 | -16.62315 | 2998 ft | 227 kts | 261° |
| 2026-05-05 17:53 | 27.96995 | -16.64008 | 2975 ft | 211 kts | 261° |
| 2026-05-05 17:53 | 27.96697 | -16.65592 | 2809 ft | 203 kts | 261° |
| 2026-05-05 17:54 | 27.96406 | -16.67155 | 2467 ft | 203 kts | 261° |
| 2026-05-05 17:54 | 27.96276 | -16.68695 | 2234 ft | 190 kts | 282° |
| 2026-05-05 17:54 | 27.96856 | -16.69923 | 2109 ft | 170 kts | 321° |
| 2026-05-05 17:54 | 27.97766 | -16.70659 | 2064 ft | 153 kts | 328° |
| 2026-05-05 17:55 | 27.98777 | -16.70810 | 2050 ft | 153 kts | 20° |
| 2026-05-05 17:55 | 27.99638 | -16.70099 | 2082 ft | 157 kts | 47° |
| 2026-05-05 17:55 | 28.00226 | -16.69086 | 2095 ft | 154 kts | 58° |
| 2026-05-05 17:55 | 28.00674 | -16.67994 | 1940 ft | 155 kts | 65° |
| 2026-05-05 17:56 | 28.01071 | -16.66910 | 1775 ft | 144 kts | 63° |
| 2026-05-05 17:56 | 28.01444 | -16.65858 | 1555 ft | 143 kts | 64° |
| 2026-05-05 17:56 | 28.01809 | -16.64818 | 1356 ft | 142 kts | 66° |
| 2026-05-05 17:56 | 28.02172 | -16.63781 | 1172 ft | 142 kts | 68° |
| 2026-05-05 17:57 | 28.02530 | -16.62748 | 1011 ft | 142 kts | 67° |
| 2026-05-05 17:57 | 28.02889 | -16.61720 | 810 ft | 140 kts | 70° |
| 2026-05-05 17:57 | 28.03236 | -16.60711 | 636 ft | 135 kts | 73° |
| 2026-05-05 17:57 | 28.03588 | -16.59707 | 391 ft | 139 kts | 70° |
| 2026-05-05 17:58 | 28.03949 | -16.58685 | 241 ft | 140 kts | 72° |
| 2026-05-05 17:58 | 28.04285 | -16.57707 | 200 ft | 121 kts | 65° |
| 2026-05-05 17:58 | 28.04519 | -16.57046 | 206 ft | 61 kts | 69° |
| 2026-05-05 17:58 | 28.04587 | -16.56851 | 209 ft | 27 kts | 68° |
| 2026-05-05 17:59 | 28.04691 | -16.56580 | 210 ft | 21 kts | 53° |
| 2026-05-05 17:59 | 28.04759 | -16.56503 | 213 ft | 22 kts | 42° |
| 2026-05-05 17:59 | 28.04853 | -16.56404 | 221 ft | 14 kts | 44° |
| 2026-05-05 17:59 | 28.04910 | -16.56355 | 225 ft | 10 kts | 17° |
| 2026-05-05 18:00 | 28.04932 | -16.56414 | 225 ft | 12 kts | 247° |
| 2026-05-05 18:00 | 28.04897 | -16.56512 | 224 ft | 14 kts | 250° |
| 2026-05-05 18:00 | 28.04857 | -16.56626 | 224 ft | 17 kts | 249° |
| 2026-05-05 18:00 | 28.04812 | -16.56754 | 224 ft | 19 kts | 250° |
| 2026-05-05 18:01 | 28.04763 | -16.56897 | 226 ft | 20 kts | 249° |
| 2026-05-05 18:01 | 28.04714 | -16.57036 | 228 ft | 14 kts | 250° |
| 2026-05-05 18:01 | 28.04687 | -16.57110 | 228 ft | 11 kts | 246° |
| 2026-05-05 18:01 | 28.04649 | -16.57196 | 230 ft | 13 kts | 247° |
| 2026-05-05 18:02 | 28.04612 | -16.57302 | 228 ft | 16 kts | 250° |
| 2026-05-05 18:02 | 28.04577 | -16.57399 | 228 ft | 7 kts | 249° |
| 2026-05-05 18:02 | 28.04598 | -16.57455 | 228 ft | 10 kts | 326° |
| 2026-05-05 18:02 | 28.04663 | -16.57486 | 230 ft | 11 kts | 329° |
| 2026-05-05 18:03 | 28.04657 | -16.57575 | 230 ft | 13 kts | 249° |
| 2026-05-05 18:03 | 28.04624 | -16.57668 | 230 ft | 5 kts | 251° |
| 2026-05-05 18:03 | 28.04639 | -16.57708 | 231 ft | 7 kts | 325° |
| 2026-05-05 18:03 | 28.04670 | -16.57724 | 231 ft | 0 kts | 337° |
| 2026-05-05 18:04 | 28.04673 | -16.57725 | 231 ft | 1 kts | 338° |
| 2026-05-05 18:04 | 28.04683 | -16.57731 | 231 ft | 0 kts | 339° |
| 2026-05-05 18:04 | 28.04685 | -16.57731 | 231 ft | 1 kts | 338° |
| 2026-05-05 18:04 | 28.04695 | -16.57736 | 234 ft | 2 kts | 340° |
| 2026-05-05 18:05 | 28.04696 | -16.57736 | 234 ft | 0 kts | 340° |